createdAt,value
2022-11-24T00:01:11.749Z,17.67
2022-11-24T00:03:39.929Z,18.10
2022-11-24T00:06:09.108Z,16.48
2022-11-24T00:08:37.467Z,19.48
2022-11-24T00:11:07.176Z,20.67
2022-11-24T00:13:35.795Z,16.75
2022-11-24T00:16:14.446Z,15.68
2022-11-24T00:18:44.053Z,15.30
2022-11-24T00:21:12.482Z,16.75
2022-11-24T00:23:40.464Z,16.00
2022-11-24T00:26:10.232Z,18.17
2022-11-24T00:28:39.301Z,15.88
2022-11-24T00:31:17.923Z,14.00
2022-11-24T00:33:46.326Z,16.52
2022-11-24T00:36:14.704Z,13.85
2022-11-24T00:38:42.786Z,12.87
2022-11-24T00:41:10.810Z,13.40
2022-11-24T00:43:38.538Z,13.30
2022-11-24T00:46:07.067Z,14.50
2022-11-24T00:48:36.512Z,12.63
2022-11-24T00:51:06.691Z,15.48
2022-11-24T00:53:35.013Z,13.83
2022-11-24T00:56:03.868Z,19.05
2022-11-24T00:58:32.607Z,16.83
2022-11-24T01:01:03.915Z,18.00
2022-11-24T01:03:31.797Z,15.40
2022-11-24T01:06:05.641Z,12.65
2022-11-24T01:08:33.568Z,18.30
2022-11-24T01:11:09.447Z,20.80
2022-11-24T01:13:37.707Z,17.38
2022-11-24T01:16:05.916Z,14.38
2022-11-24T01:18:34.106Z,18.97
2022-11-24T01:21:10.125Z,17.20
2022-11-24T01:23:38.756Z,15.77
2022-11-24T01:26:07.163Z,18.60
2022-11-24T01:28:35.066Z,18.45
2022-11-24T01:31:04.859Z,15.93
2022-11-24T01:33:34.181Z,15.88
2022-11-24T01:36:02.697Z,17.90
2022-11-24T01:38:31.906Z,15.02
2022-11-24T01:41:04.205Z,21.85
2022-11-24T01:43:32.289Z,16.93
2022-11-24T01:46:05.013Z,17.70
2022-11-24T01:48:39.434Z,17.10
2022-11-24T01:51:12.883Z,18.73
2022-11-24T01:53:44.799Z,15.85
2022-11-24T01:56:14.120Z,20.30
2022-11-24T01:58:44.452Z,20.88
2022-11-24T02:01:12.699Z,15.03
2022-11-24T02:03:44.674Z,17.55
2022-11-24T02:06:14.528Z,19.80
2022-11-24T02:08:48.075Z,19.83
2022-11-24T02:11:16.164Z,20.70
2022-11-24T02:13:45.173Z,20.65
2022-11-24T02:16:13.869Z,16.55
2022-11-24T02:18:43.137Z,22.88
2022-11-24T02:21:12.152Z,16.98
2022-11-24T02:23:49.733Z,18.88
2022-11-24T02:26:29.105Z,18.08
2022-11-24T02:28:57.524Z,18.52
2022-11-24T02:31:25.336Z,17.45
2022-11-24T02:33:53.457Z,16.85
2022-11-24T02:36:21.210Z,18.17
2022-11-24T02:38:49.140Z,18.67
2022-11-24T02:41:20.642Z,20.48
2022-11-24T02:43:56.225Z,24.02
2022-11-24T02:46:24.099Z,22.88
2022-11-24T02:48:52.091Z,21.02
2022-11-24T02:51:20.391Z,19.33
2022-11-24T02:53:48.360Z,19.58
2022-11-24T02:56:16.102Z,17.88
2022-11-24T02:58:43.826Z,20.58
2022-11-24T03:01:13.193Z,22.45
2022-11-24T03:03:41.314Z,20.15
2022-11-24T03:06:09.461Z,21.75
2022-11-24T03:08:37.266Z,23.48
2022-11-24T03:11:05.229Z,19.75
2022-11-24T03:13:32.996Z,23.13
2022-11-24T03:16:01.361Z,20.65
2022-11-24T03:18:30.589Z,22.73
2022-11-24T03:21:00.628Z,20.40
2022-11-24T03:23:28.416Z,22.30
2022-11-24T03:25:56.171Z,22.52
2022-11-24T03:28:24.192Z,19.17
2022-11-24T03:30:52.081Z,18.67
2022-11-24T03:33:20.030Z,26.45
2022-11-24T03:35:49.313Z,22.00
2022-11-24T03:38:17.081Z,26.33
2022-11-24T03:40:44.812Z,23.55
2022-11-24T03:43:12.553Z,20.98
2022-11-24T03:45:47.548Z,24.27
2022-11-24T03:48:15.779Z,26.98
2022-11-24T03:50:43.558Z,24.75
2022-11-24T03:53:12.689Z,25.45
2022-11-24T03:55:40.720Z,23.00
2022-11-24T03:58:08.438Z,22.83
2022-11-24T04:00:36.377Z,24.57
2022-11-24T04:03:04.467Z,27.30
2022-11-24T04:05:33.113Z,25.60
2022-11-24T04:08:03.104Z,21.95
2022-11-24T04:10:33.016Z,28.67
2022-11-24T04:12:59.774Z,26.23
2022-11-24T04:15:27.434Z,26.20
2022-11-24T04:17:56.490Z,25.10
2022-11-24T04:20:24.635Z,25.55
2022-11-24T04:22:52.495Z,26.73
2022-11-24T04:25:20.491Z,26.98
2022-11-24T04:27:52.845Z,27.80
2022-11-24T04:30:21.227Z,25.30
2022-11-24T04:32:49.793Z,26.50
2022-11-24T04:35:17.880Z,29.90
2022-11-24T04:37:45.543Z,28.70
2022-11-24T04:40:14.027Z,29.15
2022-11-24T04:42:41.730Z,23.90
2022-11-24T04:45:12.140Z,29.27
2022-11-24T04:47:39.763Z,24.00
2022-11-24T04:50:08.645Z,28.25
2022-11-24T04:52:36.263Z,25.10
2022-11-24T04:55:03.879Z,23.40
2022-11-24T04:57:31.656Z,28.58
2022-11-24T04:59:59.479Z,26.65
2022-11-24T05:02:28.424Z,25.00
2022-11-24T05:04:56.043Z,28.85
2022-11-24T05:07:23.660Z,27.08
2022-11-24T05:10:08.888Z,24.88
2022-11-24T05:12:36.533Z,30.42
2022-11-24T05:15:05.912Z,29.48
2022-11-24T05:17:36.396Z,26.27
2022-11-24T05:20:04.556Z,27.93
2022-11-24T05:22:32.723Z,25.17
2022-11-24T05:25:00.541Z,20.67
2022-11-24T05:27:28.182Z,21.73
2022-11-24T05:29:55.861Z,22.05
2022-11-24T05:32:23.722Z,20.65
2022-11-24T05:34:53.852Z,20.23
2022-11-24T05:37:21.892Z,23.48
2022-11-24T05:39:49.460Z,22.98
2022-11-24T05:42:34.619Z,24.00
2022-11-24T05:45:02.288Z,24.87
2022-11-24T05:47:29.860Z,22.38
2022-11-24T05:49:58.835Z,23.00
2022-11-24T05:52:26.503Z,24.67
2022-11-24T05:54:54.067Z,23.38
2022-11-24T05:57:21.729Z,22.38
2022-11-24T05:59:49.404Z,20.98
2022-11-24T06:02:17.129Z,19.88
2022-11-24T06:04:44.761Z,18.48
2022-11-24T06:07:14.045Z,21.20
2022-11-24T06:09:42.822Z,17.33
2022-11-24T06:12:11.971Z,14.63
2022-11-24T06:14:39.963Z,13.53
2022-11-24T06:17:08.082Z,17.87
2022-11-24T06:19:41.527Z,14.05
2022-11-24T06:22:09.592Z,13.23
2022-11-24T06:24:38.578Z,11.77
2022-11-24T06:27:06.877Z,9.77
2022-11-24T06:29:34.531Z,13.90
2022-11-24T06:32:02.397Z,10.20
2022-11-24T06:34:30.031Z,9.18
2022-11-24T06:36:58.254Z,7.50
2022-11-24T06:39:25.844Z,11.10
2022-11-24T06:41:54.909Z,8.50
2022-11-24T06:44:23.265Z,9.57
2022-11-24T06:46:50.916Z,10.30
2022-11-24T06:49:18.676Z,11.60
2022-11-24T06:51:46.301Z,10.00
2022-11-24T06:54:16.166Z,9.13
2022-11-24T06:56:43.839Z,8.52
2022-11-24T06:59:18.580Z,9.07
2022-11-24T07:01:47.012Z,12.07
2022-11-24T07:04:15.870Z,9.90
2022-11-24T07:06:43.966Z,11.27
2022-11-24T07:09:13.618Z,10.63
2022-11-24T07:11:41.964Z,13.88
2022-11-24T07:14:10.158Z,7.85
2022-11-24T07:16:40.086Z,9.80
2022-11-24T07:19:07.827Z,9.97
2022-11-24T07:21:35.599Z,9.68
2022-11-24T07:24:03.334Z,10.65
2022-11-24T07:26:30.989Z,9.67
2022-11-24T07:28:58.639Z,13.27
2022-11-24T07:31:26.393Z,11.98
2022-11-24T07:33:56.494Z,9.82
2022-11-24T07:36:25.298Z,8.77
2022-11-24T07:38:53.000Z,11.80
2022-11-24T07:41:22.196Z,12.45
2022-11-24T07:43:50.632Z,19.88
2022-11-24T07:46:20.007Z,16.30
2022-11-24T07:48:47.792Z,15.38
2022-11-24T07:51:16.829Z,13.55
2022-11-24T07:53:45.059Z,16.73
2022-11-24T07:56:13.596Z,14.13
2022-11-24T07:58:41.238Z,14.52
2022-11-24T08:01:14.228Z,13.18
2022-11-24T08:03:42.143Z,13.93
2022-11-24T08:06:30.023Z,14.48
2022-11-24T08:09:00.060Z,13.73
2022-11-24T08:11:28.198Z,13.18
2022-11-24T08:13:55.898Z,12.38
2022-11-24T08:16:24.577Z,13.00
2022-11-24T08:18:53.670Z,12.70
2022-11-24T08:21:23.496Z,16.13
2022-11-24T08:23:54.764Z,12.48
2022-11-24T08:26:24.883Z,15.23
2022-11-24T08:28:55.726Z,11.00
2022-11-24T08:31:24.858Z,16.00
2022-11-24T08:33:52.685Z,12.18
2022-11-24T08:36:20.534Z,11.50
2022-11-24T08:38:48.976Z,11.48
2022-11-24T08:41:18.047Z,10.50
2022-11-24T08:43:47.065Z,13.23
2022-11-24T08:46:16.952Z,11.63
2022-11-24T08:48:46.521Z,10.67
2022-11-24T08:51:16.962Z,14.80
2022-11-24T08:53:44.674Z,11.32
2022-11-24T08:56:13.876Z,12.77
2022-11-24T08:58:42.540Z,11.68
2022-11-24T09:01:13.970Z,14.07
2022-11-24T09:03:48.580Z,15.20
2022-11-24T09:06:19.796Z,11.90
2022-11-24T09:08:47.395Z,12.50
2022-11-24T09:11:17.196Z,16.60
2022-11-24T09:13:46.193Z,14.13
2022-11-24T09:16:17.018Z,14.60
2022-11-24T09:18:45.354Z,12.95
2022-11-24T09:21:15.082Z,11.13
2022-11-24T09:23:43.882Z,13.23
2022-11-24T09:26:13.758Z,13.73
2022-11-24T09:28:41.771Z,15.23
2022-11-24T09:31:11.990Z,13.60
2022-11-24T09:33:42.329Z,11.65
2022-11-24T09:36:10.626Z,14.73
2022-11-24T09:38:38.711Z,11.77
2022-11-24T09:41:34.301Z,13.17
2022-11-24T09:44:09.806Z,12.70
2022-11-24T09:46:45.264Z,15.55
2022-11-24T09:49:18.698Z,14.60
2022-11-24T09:51:52.305Z,12.13
2022-11-24T09:54:25.208Z,11.85
2022-11-24T09:56:53.427Z,11.23
2022-11-24T09:59:22.685Z,13.80
2022-11-24T10:01:51.675Z,13.73
2022-11-24T10:04:23.492Z,14.93
2022-11-24T10:07:01.368Z,16.52
2022-11-24T10:09:41.479Z,11.88
2022-11-24T10:12:20.918Z,9.05
2022-11-24T10:15:24.512Z,15.32
2022-11-24T10:18:21.551Z,10.73
2022-11-24T10:21:00.295Z,10.75
2022-11-24T10:23:43.659Z,13.67
2022-11-24T10:26:19.151Z,10.48
2022-11-24T10:28:53.222Z,11.65
2022-11-24T10:31:26.045Z,11.23
2022-11-24T10:33:53.708Z,9.45
2022-11-24T10:36:31.236Z,11.80
2022-11-24T10:39:05.498Z,13.52
2022-11-24T10:41:42.736Z,13.70
2022-11-24T10:44:14.698Z,9.77
2022-11-24T10:46:42.582Z,10.02
2022-11-24T10:49:19.070Z,12.10
2022-11-24T10:52:05.756Z,10.85
2022-11-24T10:54:35.807Z,11.75
2022-11-24T10:57:03.564Z,12.02
2022-11-24T10:59:38.389Z,13.73
2022-11-24T11:02:34.922Z,12.43
2022-11-24T11:05:28.552Z,13.02
2022-11-24T11:08:19.864Z,11.32
2022-11-24T11:10:49.830Z,11.07
2022-11-24T11:13:26.252Z,12.13
2022-11-24T11:15:54.383Z,10.35
2022-11-24T11:18:23.097Z,11.88
2022-11-24T11:20:53.462Z,10.43
2022-11-24T11:23:28.647Z,9.73
2022-11-24T11:26:18.980Z,10.95
2022-11-24T11:34:54.470Z,9.70
2022-11-24T11:37:26.661Z,8.95
2022-11-24T11:39:56.305Z,11.68
2022-11-24T11:43:00.886Z,10.05
2022-11-24T11:45:22.483Z,11.57
2022-11-24T11:47:55.828Z,8.60
2022-11-24T11:50:28.438Z,10.68
2022-11-24T11:53:10.475Z,8.40
2022-11-24T11:56:13.330Z,9.60
2022-11-24T11:58:57.691Z,10.82
2022-11-24T12:01:38.582Z,8.60
2022-11-24T12:04:18.508Z,10.52
2022-11-24T12:07:02.439Z,10.63
2022-11-24T12:09:48.804Z,8.77
2022-11-24T12:12:41.069Z,9.70
2022-11-24T12:15:16.986Z,11.18
2022-11-24T12:17:52.460Z,10.27
2022-11-24T12:20:45.205Z,12.03
2022-11-24T12:23:26.548Z,11.75
2022-11-24T12:26:00.249Z,9.30
2022-11-24T12:28:41.472Z,11.70
2022-11-24T12:31:17.127Z,9.10
2022-11-24T12:34:10.118Z,9.95
2022-11-24T12:36:52.449Z,10.35
2022-11-24T12:39:28.731Z,8.48
2022-11-24T12:42:06.372Z,9.70
2022-11-24T12:44:57.300Z,10.10
2022-11-24T12:47:36.467Z,10.80
2022-11-24T12:50:10.149Z,8.55
2022-11-24T12:52:42.655Z,9.38
2022-11-24T12:55:18.115Z,9.32
2022-11-24T12:57:51.447Z,11.53
2022-11-24T13:00:23.810Z,9.82
2022-11-24T13:03:13.932Z,13.20
2022-11-24T13:05:51.255Z,10.00
2022-11-24T13:08:20.043Z,11.00
2022-11-24T13:10:57.101Z,12.52
2022-11-24T13:13:29.275Z,8.40
2022-11-24T13:19:11.017Z,12.13
2022-11-24T13:22:15.304Z,9.35
2022-11-24T13:24:44.842Z,13.95
2022-11-24T13:27:41.505Z,10.68
2022-11-24T13:30:52.092Z,10.07
2022-11-24T13:33:31.590Z,10.37
2022-11-24T13:36:31.490Z,11.75
2022-11-24T13:39:00.424Z,11.38
2022-11-24T13:42:08.451Z,11.07
2022-11-24T13:44:53.194Z,12.38
2022-11-24T13:47:41.773Z,10.35
2022-11-24T13:50:46.089Z,12.30
2022-11-24T13:53:22.810Z,8.40
2022-11-24T13:55:58.056Z,7.87
2022-11-24T13:58:35.337Z,10.35
2022-11-24T14:01:12.896Z,12.38
2022-11-24T14:04:21.707Z,13.13
2022-11-24T14:06:39.112Z,9.93
2022-11-24T14:09:22.206Z,13.80
2022-11-24T14:12:00.365Z,11.25
2022-11-24T14:14:28.137Z,8.97
2022-11-24T14:17:14.437Z,11.55
2022-11-24T14:19:42.931Z,13.10
2022-11-24T14:22:16.752Z,12.80
2022-11-24T14:24:47.936Z,12.75
2022-11-24T14:27:18.275Z,12.82
2022-11-24T14:29:56.616Z,12.98
2022-11-24T14:32:24.893Z,15.97
2022-11-24T14:34:54.114Z,14.95
2022-11-24T14:37:22.206Z,14.77
2022-11-24T14:39:51.370Z,13.50
2022-11-24T14:42:22.313Z,11.73
2022-11-24T14:44:54.153Z,14.30
2022-11-24T14:47:31.306Z,18.42
2022-11-24T14:50:09.345Z,13.48
2022-11-24T14:52:37.548Z,12.43
2022-11-24T14:55:22.448Z,12.77
2022-11-24T14:57:50.680Z,18.93
2022-11-24T15:00:21.154Z,12.25
2022-11-24T15:02:51.988Z,14.85
2022-11-24T15:05:20.552Z,17.48
2022-11-24T15:07:50.501Z,13.25
2022-11-24T15:10:29.083Z,17.92
2022-11-24T15:13:01.925Z,19.43
2022-11-24T15:15:33.044Z,15.68
2022-11-24T15:18:02.438Z,19.23
2022-11-24T15:20:32.802Z,17.83
2022-11-24T15:23:31.692Z,18.38
2022-11-24T15:26:30.723Z,22.00
2022-11-24T15:29:00.858Z,22.40
2022-11-24T15:31:28.533Z,17.60
2022-11-24T15:33:56.228Z,22.73
2022-11-24T15:36:23.866Z,18.07
2022-11-24T15:38:52.049Z,20.42
2022-11-24T15:41:23.017Z,14.68
2022-11-24T15:43:50.663Z,16.50
2022-11-24T15:46:18.368Z,16.08
2022-11-24T15:48:46.292Z,20.67
2022-11-24T15:51:15.651Z,17.48
2022-11-24T15:53:46.645Z,17.60
2022-11-24T15:56:20.357Z,17.63
2022-11-24T15:58:49.683Z,17.70
2022-11-24T16:01:17.582Z,15.00
2022-11-24T16:03:47.561Z,20.70
2022-11-24T16:06:24.254Z,17.85
2022-11-24T16:08:53.216Z,19.45
2022-11-24T16:11:20.880Z,18.13
2022-11-24T16:13:52.896Z,16.02
2022-11-24T16:16:22.034Z,14.83
2022-11-24T16:18:49.951Z,16.02
2022-11-24T16:21:17.830Z,16.65
2022-11-24T16:23:45.561Z,21.30
2022-11-24T16:26:14.323Z,23.35
2022-11-24T16:28:42.785Z,27.65
2022-11-24T16:31:12.609Z,45.40
2022-11-24T16:33:40.944Z,40.60
2022-11-24T16:36:09.437Z,32.50
2022-11-24T16:38:37.210Z,30.60
2022-11-24T16:41:04.892Z,28.73
2022-11-24T16:43:32.562Z,30.02
2022-11-24T16:46:17.931Z,25.88
2022-11-24T16:48:48.595Z,23.98
2022-11-24T16:51:18.223Z,31.83
2022-11-24T16:53:46.163Z,47.30
2022-11-24T16:56:14.811Z,52.78
2022-11-24T16:58:42.511Z,55.28
2022-11-24T17:01:11.672Z,26.95
2022-11-24T17:03:40.001Z,21.63
2022-11-24T17:06:11.281Z,22.40
2022-11-24T17:08:40.720Z,24.15
2022-11-24T17:11:09.102Z,23.80
2022-11-24T17:13:36.799Z,28.23
2022-11-24T17:16:05.764Z,20.30
2022-11-24T17:18:34.272Z,20.73
2022-11-24T17:21:07.668Z,18.02
2022-11-24T17:23:38.800Z,21.97
2022-11-24T17:26:08.076Z,20.70
2022-11-24T17:28:37.644Z,17.83
2022-11-24T17:31:08.911Z,24.60
2022-11-24T17:33:36.936Z,22.25
2022-11-24T17:36:05.592Z,19.30
2022-11-24T17:38:33.430Z,26.90
2022-11-24T17:41:02.699Z,27.38
2022-11-24T17:43:30.435Z,32.05
2022-11-24T17:46:00.791Z,30.33
2022-11-24T17:48:29.359Z,25.90
2022-11-24T17:51:01.737Z,22.80
2022-11-24T17:53:29.419Z,25.15
2022-11-24T17:55:59.819Z,27.85
2022-11-24T17:58:29.165Z,24.90
2022-11-24T18:00:56.970Z,22.92
2022-11-24T18:03:25.584Z,22.58
2022-11-24T18:05:54.263Z,25.33
2022-11-24T18:08:22.183Z,22.95
2022-11-24T18:10:49.977Z,24.10
2022-11-24T18:13:34.310Z,24.67
2022-11-24T18:16:08.883Z,24.92
2022-11-24T18:18:40.236Z,23.58
2022-11-24T18:21:12.690Z,23.23
2022-11-24T18:23:40.832Z,23.15
2022-11-24T18:26:09.110Z,25.23
2022-11-24T18:28:36.718Z,26.00
2022-11-24T18:31:07.171Z,27.52
2022-11-24T18:33:37.697Z,22.95
2022-11-24T18:36:06.944Z,24.45
2022-11-24T18:38:36.841Z,20.67
2022-11-24T18:41:05.713Z,31.73
2022-11-24T18:43:35.368Z,30.83
2022-11-24T18:46:07.021Z,25.35
2022-11-24T18:48:35.271Z,24.77
2022-11-24T18:51:03.147Z,25.83
2022-11-24T18:53:32.142Z,28.15
2022-11-24T18:56:02.010Z,29.67
2022-11-24T18:58:30.959Z,26.70
2022-11-24T19:01:09.016Z,31.58
2022-11-24T19:03:42.372Z,27.75
2022-11-24T19:06:17.095Z,26.08
2022-11-24T19:08:45.522Z,29.27
2022-11-24T19:11:18.849Z,26.02
2022-11-24T19:13:47.553Z,25.67
2022-11-24T19:16:17.959Z,24.30
2022-11-24T19:18:51.872Z,30.42
2022-11-24T19:21:22.041Z,22.80
2022-11-24T19:23:50.379Z,20.58
2022-11-24T19:26:18.596Z,18.02
2022-11-24T19:28:46.617Z,33.50
2022-11-24T19:31:17.348Z,22.70
2022-11-24T19:33:46.309Z,23.52
2022-11-24T19:36:16.004Z,24.95
2022-11-24T19:38:51.187Z,22.13
2022-11-24T19:41:20.710Z,27.00
2022-11-24T19:43:49.215Z,21.58
2022-11-24T19:46:20.013Z,27.23
2022-11-24T19:48:50.204Z,26.23
2022-11-24T19:51:20.297Z,26.10
2022-11-24T19:53:48.378Z,25.08
2022-11-24T19:56:18.582Z,22.33
2022-11-24T19:58:47.467Z,23.90
2022-11-24T20:01:17.036Z,20.08
2022-11-24T20:03:47.804Z,22.50
2022-11-24T20:06:16.571Z,20.30
2022-11-24T20:08:44.738Z,24.13
2022-11-24T20:11:14.503Z,24.58
2022-11-24T20:13:43.910Z,19.27
2022-11-24T20:16:16.803Z,20.63
2022-11-24T20:18:47.651Z,26.30
2022-11-24T20:21:17.858Z,26.17
2022-11-24T20:23:47.179Z,19.45
2022-11-24T20:26:19.513Z,20.80
2022-11-24T20:28:49.103Z,46.08
2022-11-24T20:31:18.710Z,30.35
2022-11-24T20:33:48.280Z,27.70
2022-11-24T20:36:18.135Z,36.63
2022-11-24T20:38:46.884Z,22.77
2022-11-24T20:41:17.020Z,22.67
2022-11-24T20:43:45.938Z,20.90
2022-11-24T20:46:15.919Z,24.38
2022-11-24T20:48:44.202Z,23.95
2022-11-24T20:51:15.775Z,19.27
2022-11-24T20:53:43.730Z,24.92
2022-11-24T20:56:13.695Z,20.05
2022-11-24T20:58:41.966Z,24.98
2022-11-24T21:01:13.286Z,22.52
2022-11-24T21:03:43.433Z,32.70
2022-11-24T21:06:13.597Z,42.30
2022-11-24T21:08:43.193Z,20.83
2022-11-24T21:11:13.388Z,17.83
2022-11-24T21:13:43.797Z,20.75
2022-11-24T21:16:16.529Z,18.38
2022-11-24T21:18:45.292Z,19.85
2022-11-24T21:21:15.151Z,18.35
2022-11-24T21:23:42.861Z,16.98
2022-11-24T21:26:16.351Z,19.17
2022-11-24T21:28:47.107Z,23.50
2022-11-24T21:31:16.682Z,25.70
2022-11-24T21:33:46.344Z,24.65
2022-11-24T21:36:17.867Z,34.13
2022-11-24T21:38:50.331Z,22.83
2022-11-24T21:41:18.214Z,28.50
2022-11-24T21:43:46.364Z,41.08
2022-11-24T21:46:14.653Z,54.80
2022-11-24T21:48:43.525Z,37.20
2022-11-24T21:51:14.002Z,48.40
2022-11-24T21:53:44.539Z,44.45
2022-11-24T21:56:13.846Z,26.92
2022-11-24T21:58:47.126Z,26.48
2022-11-24T22:01:15.999Z,23.60
2022-11-24T22:03:44.137Z,26.60
2022-11-24T22:06:11.802Z,23.55
2022-11-24T22:08:39.769Z,25.92
2022-11-24T22:11:12.327Z,26.20
2022-11-24T22:13:40.073Z,20.65
2022-11-24T22:16:09.785Z,22.40
2022-11-24T22:18:39.107Z,16.20
2022-11-24T22:21:08.000Z,16.25
2022-11-24T22:23:37.770Z,15.35
2022-11-24T22:26:06.037Z,19.67
2022-11-24T22:28:35.854Z,15.37
2022-11-24T22:31:07.639Z,17.05
2022-11-24T22:33:35.481Z,16.05
2022-11-24T22:36:03.644Z,15.10
2022-11-24T22:38:32.748Z,16.00
2022-11-24T22:41:04.590Z,17.38
2022-11-24T22:43:33.288Z,17.73
2022-11-24T22:46:05.934Z,16.87
2022-11-24T22:48:34.572Z,17.60
2022-11-24T22:51:03.719Z,13.63
2022-11-24T22:53:31.527Z,13.85
2022-11-24T22:56:02.240Z,16.60
2022-11-24T22:58:30.275Z,11.30
2022-11-24T23:00:58.699Z,12.70
2022-11-24T23:03:27.705Z,12.07
2022-11-24T23:05:55.432Z,13.50
2022-11-24T23:08:23.052Z,13.65
2022-11-24T23:10:50.685Z,12.03
2022-11-24T23:13:18.387Z,17.70
2022-11-24T23:15:45.988Z,12.18
2022-11-24T23:18:13.855Z,13.75
2022-11-24T23:20:42.788Z,12.70
2022-11-24T23:23:10.392Z,14.70
2022-11-24T23:25:38.052Z,9.37
2022-11-24T23:28:06.057Z,16.80
2022-11-24T23:30:33.665Z,10.37
2022-11-24T23:33:01.320Z,14.05
2022-11-24T23:35:29.132Z,11.18
2022-11-24T23:38:07.403Z,11.50
2022-11-24T23:40:35.667Z,13.77
2022-11-24T23:43:03.284Z,14.40
2022-11-24T23:45:31.014Z,11.40
2022-11-24T23:47:58.731Z,12.40
2022-11-24T23:50:26.417Z,15.35
2022-11-24T23:52:54.425Z,10.98
2022-11-24T23:55:23.407Z,13.10
2022-11-24T23:57:51.018Z,11.90
